Data for 08/01/2013

Time Sea-Level Adjusted Pressure Absolute Pressure Temperature Relative Humidity Dew Point   
(mb) (inHg) (mb) (inHg) (C) (F) (%) (C) (F)
00:05 1022 30.18 851 25.13 19.1 66.3 41 5.6 42.2
00:10 1021 30.15 851 25.13 19.2 66.5 41 5.8 42.4
00:15 1021 30.15 851 25.13 19.2 66.5 41 5.8 42.5
00:20 1022 30.18 851 25.13 19.2 66.6 41 5.7 42.3
00:25 1022 30.18 851 25.13 19.2 66.5 42 6.1 43
00:30 1022 30.18 851 25.13 19 66.1 43 6.4 43.4
00:35 1021 30.15 851 25.13 18.9 66 44 6.5 43.7
00:40 1021 30.15 850 25.1 18.7 65.6 45 6.7 44.1
00:45 1021 30.15 851 25.13 18.5 65.2 47 7 44.7
00:50 1021 30.15 851 25.13 18.3 64.9 48 7.2 44.9
00:55 1021 30.15 850 25.1 18.2 64.7 48 7 44.5
01:00 1021 30.15 850 25.1 18.2 64.7 47 6.7 44.1
01:05 1021 30.15 850 25.1 18.3 65 46 6.6 43.9
01:10 1021 30.15 850 25.1 18.4 65 46 6.6 43.8
01:15 1021 30.15 850 25.1 18.4 65.1 45 6.5 43.7
01:20 1021 30.15 851 25.13 18.5 65.3 45 6.5 43.7
01:25 1022 30.18 851 25.13 18.5 65.2 45 6.6 43.8
01:30 1022 30.18 851 25.13 18.4 65.1 46 6.7 44
01:35 1022 30.18 851 25.13 18.4 65.1 47 7 44.6
01:40 1022 30.18 851 25.13 18.6 65.5 46 6.8 44.2
01:45 1022 30.18 851 25.13 18.8 65.8 44 6.5 43.7
01:50 1022 30.18 851 25.13 18.7 65.7 45 6.6 43.8
01:55 1022 30.18 851 25.13 18.2 64.7 47 6.8 44.2
02:00 1022 30.18 851 25.13 17.3 63.1 50 6.9 44.3
02:05 1021 30.15 851 25.13 16.6 62 52 6.8 44.2
02:10 1021 30.15 851 25.13 16.3 61.4 53 6.9 44.4
02:15 1021 30.15 850 25.1 16.2 61.2 54 6.9 44.5
02:20 1021 30.15 850 25.1 16.2 61.1 54 6.9 44.5
02:25 1021 30.15 850 25.1 16.1 60.9 54 6.7 44.1
02:30 1021 30.15 850 25.1 16.1 60.9 53 6.6 43.8
02:35 1020 30.12 850 25.1 16.1 61 53 6.5 43.8
02:40 1020 30.12 850 25.1 16.1 60.9 53 6.5 43.7
02:45 1020 30.12 850 25.1 15.9 60.7 53 6.5 43.7
02:50 1020 30.12 850 25.1 15.9 60.6 53 6.5 43.8
02:55 1020 30.12 849 25.07 15.9 60.6 54 6.8 44.3
03:00 1020 30.12 849 25.07 15.7 60.3 56 7 44.5
03:05 1020 30.12 849 25.07 15.7 60.2 55 6.7 44.1
03:10 1020 30.12 849 25.07 15.9 60.6 55 6.9 44.5
03:15 1020 30.12 849 25.07 15.9 60.6 55 6.9 44.4
03:20 1020 30.12 849 25.07 16 60.9 56 7.3 45.1
03:25 1020 30.12 849 25.07 15.8 60.4 57 7.3 45.1
03:30 1020 30.12 849 25.07 15.6 60 57 7.2 45
03:35 1020 30.12 849 25.07 15.4 59.8 58 7.3 45.1
03:40 1020 30.12 849 25.07 15.4 59.8 58 7.2 45
03:45 1020 30.12 849 25.07 15.5 60 57 7.2 45
03:50 1020 30.12 849 25.07 16.1 61 55 7 44.7
03:55 1019 30.09 849 25.07 16.7 62 54 7.4 45.3
04:00 1019 30.09 849 25.07 16.8 62.2 54 7.5 45.5
04:05 1019 30.09 849 25.07 16.9 62.3 54 7.6 45.7
04:10 1019 30.09 848 25.04 16.8 62.2 55 7.8 46
04:15 1019 30.09 848 25.04 16.8 62.2 55 7.8 46
04:20 1019 30.09 848 25.04 16.9 62.4 54 7.6 45.7
04:25 1019 30.09 848 25.04 17 62.6 54 7.6 45.7
04:30 1019 30.09 848 25.04 17.1 62.8 53 7.6 45.6
04:35 1019 30.09 849 25.07 17 62.6 54 7.7 45.8
04:40 1019 30.09 849 25.07 16.6 61.9 54 7.5 45.4
04:45 1019 30.09 849 25.07 16.5 61.7 54 7.3 45.1
04:50 1020 30.12 849 25.07 16.4 61.4 56 7.7 45.9
04:55 1020 30.12 849 25.07 16.2 61.1 54 7.1 44.7
05:00 1020 30.12 849 25.07 16.2 61.1 54 6.9 44.5
05:05 1020 30.12 849 25.07 16.4 61.5 55 7.5 45.5
05:10 1020 30.12 849 25.07 16.2 61.1 56 7.5 45.6
05:15 1020 30.12 849 25.07 15.8 60.5 57 7.4 45.4
05:20 1020 30.12 849 25.07 15.7 60.3 56 7 44.7
05:25 1020 30.12 849 25.07 15.8 60.5 56 7.2 45
05:30 1020 30.12 849 25.07 16 60.8 55 6.9 44.5
05:35 1020 30.12 849 25.07 16.2 61.1 56 7.4 45.4
05:40 1020 30.12 849 25.07 16.1 61 55 7.2 45
05:45 1020 30.12 849 25.07 16.3 61.4 54 7 44.5
05:50 1020 30.12 850 25.1 16.8 62.2 53 7.2 45
05:55 1021 30.15 850 25.1 16.8 62.3 54 7.4 45.4
06:00 1021 30.15 850 25.1 16.8 62.3 55 7.7 45.9
06:05 1020 30.12 849 25.07 16.6 61.9 56 8 46.3
06:10 1021 30.15 850 25.1 16.6 61.8 56 7.9 46.1
06:15 1021 30.15 850 25.1 16.6 61.9 56 7.9 46.3
06:20 1020 30.12 850 25.1 16.3 61.3 58 8.1 46.6
06:25 1021 30.15 850 25.1 16.2 61.2 58 8.1 46.6
06:30 1021 30.15 850 25.1 16.4 61.5 57 8 46.3
06:35 1021 30.15 850 25.1 16.7 62.1 56 8 46.4
06:40 1021 30.15 850 25.1 16.6 61.8 56 8 46.3
06:45 1021 30.15 850 25.1 16.4 61.5 57 8 46.5
06:50 1021 30.15 850 25.1 16.4 61.5 57 7.9 46.3
06:55 1021 30.15 850 25.1 16.5 61.6 57 8.1 46.6
07:00 1021 30.15 850 25.1 16.5 61.6 60 8.7 47.6
07:05 1021 30.15 850 25.1 16.3 61.4 58 8 46.5
07:10 1021 30.15 850 25.1 16.3 61.4 56 7.7 45.8
07:15 1020 30.12 850 25.1 16.5 61.7 62 9.3 48.7
07:20 1020 30.12 849 25.07 16.1 61.1 63 9.2 48.6
07:25 1020 30.12 850 25.1 16.2 61.1 65 9.6 49.2
07:30 1020 30.12 850 25.1 16 60.9 68 10.1 50.2
07:35 1020 30.12 849 25.07 15.8 60.5 66 9.6 49.4
07:40 1020 30.12 849 25.07 15.8 60.5 64 9.1 48.3
07:45 1020 30.12 849 25.07 16.4 61.5 63 9.3 48.8
07:50 1020 30.12 849 25.07 16.9 62.3 59 8.9 48
07:55 1020 30.12 849 25.07 17.5 63.5 56 8.7 47.6
08:00 1019 30.09 849 25.07 17.9 64.2 56 9.2 48.6
08:05 1019 30.09 848 25.04 18.1 64.5 55 8.9 48
08:10 1019 30.09 848 25.04 18.4 65.2 53 8.7 47.7
08:15 1019 30.09 848 25.04 18.2 64.7 54 8.9 48
08:20 1019 30.09 848 25.04 18.2 64.8 53 8.5 47.4
08:25 1019 30.09 848 25.04 18.9 66 50 8.4 47.1
08:30 1019 30.09 848 25.04 19.2 66.6 49 8.4 47.2
08:35 1019 30.09 848 25.04 19.2 66.5 50 8.6 47.4
08:40 1019 30.09 848 25.04 19.1 66.4 50 8.5 47.3
08:45 1019 30.09 848 25.04 19.3 66.8 49 8.4 47.1
08:50 1019 30.09 848 25.04 19.7 67.5 48 8.4 47.1
08:55 1019 30.09 848 25.04 20.2 68.3 46 8.2 46.8
09:00 1019 30.09 848 25.04 20.5 68.9 46 8.7 47.7
09:05 1019 30.09 848 25.04 20.9 69.6 44 8.4 47.1
09:10 1019 30.09 848 25.04 21.3 70.4 44 8.8 47.8
09:15 1019 30.09 848 25.04 21.4 70.5 46 9.5 49
09:20 1019 30.09 848 25.04 20.5 68.8 48 9.3 48.7
09:25 1019 30.09 848 25.04 20.3 68.5 47 8.8 47.9
09:30 1019 30.09 848 25.04 19.9 67.9 47 8.4 47.2
09:35 1019 30.09 848 25.04 20.6 69.1 45 8.3 46.9
09:40 1019 30.09 848 25.04 20.8 69.4 46 9 48.3
09:45 1019 30.09 848 25.04 20.7 69.2 46 8.8 47.9
09:50 1019 30.09 848 25.04 21.3 70.3 43 8.3 47
09:55 1019 30.09 848 25.04 21.9 71.4 40 7.9 46.2
10:00 1019 30.09 848 25.04 22.1 71.8 41 8.5 47.3
10:05 1019 30.09 848 25.04 22.3 72.1 41 8.6 47.5
10:10 1019 30.09 848 25.04 23 73.3 40 8.9 48.1
10:15 1019 30.09 848 25.04 22.7 72.9 44 9.9 49.9
10:20 1019 30.09 848 25.04 22.6 72.7 40 8.7 47.6
10:25 1019 30.09 848 25.04 23.3 73.9 39 8.8 47.8
10:30 1019 30.09 848 25.04 23.8 74.9 37 8.3 46.9
10:35 1019 30.09 848 25.04 23.6 74.5 37 8.4 47.1
10:40 1019 30.09 848 25.04 24.3 75.8 36 8.4 47.2
10:45 1019 30.09 848 25.04 23.9 75 39 9.1 48.5
10:50 1019 30.09 848 25.04 23.3 74 38 8.3 46.9
10:55 1019 30.09 848 25.04 23 73.5 41 9.1 48.4
11:00 1019 30.09 848 25.04 21.9 71.4 41 8.1 46.7
11:05 1019 30.09 848 25.04 21.8 71.2 37 6.7 44.1
11:10 1019 30.09 848 25.04 22.3 72.1 36 6.6 43.9
11:15 1019 30.09 848 25.04 22.3 72.2 37 7.1 44.8
11:20 1018 30.06 848 25.04 22.6 72.6 35 6.6 43.8
11:25 1018 30.06 847 25.01 22.7 72.8 36 7 44.6
11:30 1018 30.06 847 25.01 22.5 72.5 36 7 44.6
11:35 1018 30.06 847 25.01 22.9 73.3 36 7.3 45.1
11:40 1018 30.06 847 25.01 22.5 72.5 39 8 46.4
11:45 1018 30.06 847 25.01 22.3 72.1 40 8.1 46.6
11:50 1018 30.06 847 25.01 22.6 72.8 38 7.8 46.1
11:55 1018 30.06 847 25.01 22.8 73.1 36 7 44.7
12:00 1018 30.06 847 25.01 23 73.4 36 7.2 45
12:05 1018 30.06 847 25.01 23.2 73.8 35 7.3 45.1
12:10 1018 30.06 847 25.01 23.3 74 36 7.4 45.4
12:15 1017 30.03 847 25.01 23.4 74 35 7.4 45.2
12:20 1017 30.03 847 25.01 23.6 74.6 34 7.1 44.8
12:25 1017 30.03 846 24.98 23.6 74.5 34 7.3 45.1
12:30 1017 30.03 846 24.98 24.2 75.5 33 7 44.5
12:35 1017 30.03 846 24.98 24.1 75.3 33 7 44.6
12:40 1017 30.03 846 24.98 23.8 74.9 33 6.7 44.1
12:45 1017 30.03 846 24.98 24 75.2 33 6.9 44.5
12:50 1017 30.03 846 24.98 24.1 75.3 32 6.4 43.6
12:55 1017 30.03 846 24.98 24.2 75.5 32 6.4 43.6
13:00 1016 30 846 24.98 24.6 76.3 31 6.5 43.7
13:05 1016 30 845 24.95 24.7 76.4 31 6.8 44.2
13:10 1016 30 845 24.95 24.7 76.4 32 7.2 44.9
13:15 1016 30 845 24.95 24.8 76.7 31 6.9 44.4
13:20 1016 30 845 24.95 25 77 31 7.1 44.8
13:25 1016 30 845 24.95 24.9 76.8 31 6.9 44.4
13:30 1016 30 845 24.95 24.8 76.6 31 6.9 44.4
13:35 1016 30 845 24.95 25.1 77.2 32 7.3 45.1
13:40 1016 30 845 24.95 25 76.9 32 7.5 45.5
13:45 1016 30 845 24.95 25.1 77.1 32 7.4 45.2
13:50 1015 29.97 845 24.95 25.1 77.2 31 7 44.6
13:55 1015 29.97 845 24.95 25.2 77.3 32 7.4 45.4
14:00 1015 29.97 844 24.92 24.5 76 33 7.2 44.9
14:05 1015 29.97 844 24.92 24.4 75.8 32 7 44.5
14:10 1015 29.97 844 24.92 24.5 76 33 7.5 45.4
14:15 1015 29.97 844 24.92 24.6 76.3 33 7.4 45.4
14:20 1015 29.97 844 24.92 24.9 76.8 32 7.5 45.4
14:25 1015 29.97 844 24.92 24.6 76.2 32 7.2 45
14:30 1014 29.94 844 24.92 24.5 76 33 7.3 45.2
14:35 1014 29.94 844 24.92 24.5 76 33 7.4 45.3
14:40 1014 29.94 844 24.92 24.7 76.4 33 7.5 45.5
14:45 1014 29.94 844 24.92 24.6 76.2 33 7.5 45.5
14:50 1015 29.97 844 24.92 24.6 76.3 33 7.5 45.4
14:55 1015 29.97 844 24.92 24.8 76.6 32 7.2 44.9
15:00 1014 29.94 844 24.92 25 77 32 7.3 45.2
15:05 1014 29.94 843 24.89 24.6 76.4 32 7.3 45.1
15:10 1014 29.94 843 24.89 24.5 76 33 7.3 45.1
15:15 1014 29.94 843 24.89 24.2 75.6 34 7.4 45.3
15:20 1014 29.94 843 24.89 24.1 75.4 34 7.3 45.1
15:25 1014 29.94 843 24.89 24 75.2 34 7.4 45.3
15:30 1014 29.94 843 24.89 24 75.2 34 7.4 45.3
15:35 1013 29.91 843 24.89 24 75.1 34 7.5 45.5
15:40 1013 29.91 842 24.86 23.9 75 34 7.4 45.3
15:45 1013 29.91 842 24.86 23.8 74.9 35 7.5 45.6
15:50 1013 29.91 842 24.86 23.6 74.6 35 7.6 45.7
15:55 1012 29.88 841 24.83 23.5 74.2 36 7.6 45.6
16:00 1012 29.88 841 24.83 23.3 74 36 7.7 45.9
16:05 1012 29.88 841 24.83 23.2 73.7 36 7.6 45.6
16:10 1012 29.88 841 24.83 23.1 73.6 36 7.6 45.7
16:15 1012 29.88 841 24.83 23.1 73.6 36 7.6 45.7
16:20 1013 29.91 842 24.86 23.1 73.5 37 7.7 45.8
16:25 1015 29.97 844 24.92 23.1 73.5 37 7.8 46.1
16:30 1016 30 845 24.95 21.7 71.1 55 12.4 54.3
16:35 1016 30 845 24.95 18.3 65 60 10.5 50.8
16:40 1016 30 845 24.95 17.6 63.7 64 10.8 51.4
16:45 1016 30 845 24.95 16.4 61.6 69 10.7 51.3
16:50 1017 30.03 846 24.98 15.9 60.6 71 10.7 51.3
16:55 1017 30.03 846 24.98 15.8 60.5 71 10.6 51
17:00 1017 30.03 846 24.98 15.9 60.6 70 10.6 51
17:05 1017 30.03 846 24.98 16.2 61.1 69 10.6 51.1
17:10 1017 30.03 846 24.98 16.1 61 71 11 51.8
17:15 1017 30.03 846 24.98 15.6 60.1 73 10.8 51.5
17:20 1017 30.03 847 25.01 15.5 60 71 10.4 50.7
17:25 1018 30.06 847 25.01 16.3 61.3 67 10.3 50.5
17:30 1018 30.06 847 25.01 16.9 62.4 65 10.5 50.8
17:35 1018 30.06 847 25.01 17.4 63.3 63 10.3 50.6
17:40 1018 30.06 847 25.01 17.7 63.9 63 10.7 51.3
17:45 1018 30.06 847 25.01 17.6 63.8 63 10.6 51
17:50 1018 30.06 847 25.01 17.5 63.4 63 10.5 50.8
17:55 1018 30.06 847 25.01 17.4 63.2 63 10.3 50.6
18:00 1018 30.06 847 25.01 17.4 63.3 63 10.4 50.7
18:05 1018 30.06 847 25.01 17.4 63.4 63 10.4 50.7
18:10 1018 30.06 847 25.01 17.6 63.6 63 10.4 50.7
18:15 1018 30.06 847 25.01 17.8 64 62 10.4 50.7
18:20 1018 30.06 848 25.04 17.8 64 62 10.5 51
18:25 1018 30.06 848 25.04 17.8 64 63 10.8 51.4
18:30 1018 30.06 848 25.04 17.7 63.8 63 10.7 51.3
18:35 1019 30.09 848 25.04 17.4 63.2 63 10.3 50.6
18:40 1019 30.09 848 25.04 17.2 63 64 10.4 50.7
18:45 1019 30.09 848 25.04 17 62.6 65 10.5 50.9
18:50 1019 30.09 848 25.04 16.7 62.1 68 10.9 51.5
18:55 1019 30.09 848 25.04 16.3 61.4 71 11.1 52
19:00 1019 30.09 848 25.04 16 60.9 74 11.4 52.5
19:05 1019 30.09 848 25.04 15.7 60.3 76 11.6 52.8
19:10 1019 30.09 848 25.04 15.4 59.7 78 11.6 52.9
19:15 1019 30.09 848 25.04 15.2 59.4 78 11.6 52.8
19:20 1019 30.09 848 25.04 15.2 59.3 79 11.5 52.8
19:25 1019 30.09 848 25.04 15.2 59.3 78 11.4 52.4
19:30 1019 30.09 848 25.04 15.2 59.4 77 11.3 52.4
19:35 1019 30.09 848 25.04 15.4 59.7 77 11.4 52.4
19:40 1018 30.06 848 25.04 15.4 59.7 77 11.3 52.4
19:45 1018 30.06 848 25.04 15.3 59.5 77 11.3 52.3
19:50 1018 30.06 847 25.01 15.1 59.3 78 11.3 52.3
19:55 1018 30.06 847 25.01 15.1 59.2 77 11.2 52.1
20:00 1018 30.06 847 25.01 15.1 59.2 77 11.1 52
20:05 1018 30.06 847 25.01 15.1 59.2 77 11.1 52
20:10 1018 30.06 847 25.01 15.1 59.2 77 11.1 51.9
20:15 1018 30.06 847 25.01 15.2 59.4 76 11.1 51.9
20:20 1018 30.06 847 25.01 15.3 59.5 76 11 51.9
20:25 1018 30.06 848 25.04 15.3 59.6 75 10.9 51.7
20:30 1019 30.09 848 25.04 15.4 59.8 75 11 51.8
20:35 1018 30.06 848 25.04 15.3 59.6 75 11 51.7
20:40 1018 30.06 848 25.04 15.5 59.8 74 11 51.8
20:45 1018 30.06 848 25.04 15.6 60 73 10.9 51.6
20:50 1018 30.06 847 25.01 15.6 60.1 74 11 51.8
20:55 1018 30.06 848 25.04 15.4 59.8 75 11.1 51.9
21:00 1019 30.09 848 25.04 15.4 59.8 75 11 51.9
21:05 1019 30.09 848 25.04 15.5 59.9 75 11.1 51.9
21:10 1019 30.09 848 25.04 15.4 59.8 75 11 51.8
21:15 1018 30.06 847 25.01 15.5 59.9 74 10.9 51.7
21:20 1018 30.06 847 25.01 15.5 59.8 75 11.1 51.9
21:25 1018 30.06 847 25.01 15.4 59.7 75 11.1 51.9
21:30 1018 30.06 847 25.01 15.2 59.4 76 11 51.8
21:35 1018 30.06 847 25.01 15.1 59.2 77 11.1 52
21:40 1018 30.06 847 25.01 14.9 58.8 78 11.1 52
21:45 1018 30.06 847 25.01 14.8 58.6 78 11 51.8
21:50 1018 30.06 848 25.04 14.9 58.9 79 11.4 52.5
21:55 1019 30.09 848 25.04 15 59 78 11.3 52.3
22:00 1019 30.09 848 25.04 15.1 59.2 77 11.2 52.1
22:05 1018 30.06 848 25.04 15 58.9 78 11.3 52.3
22:10 1018 30.06 847 25.01 14.8 58.7 79 11.2 52.2
22:15 1018 30.06 847 25.01 14.7 58.5 79 11.2 52.1
22:20 1018 30.06 847 25.01 14.8 58.6 80 11.4 52.5
22:25 1018 30.06 847 25.01 15 59 78 11.2 52.2
22:30 1018 30.06 847 25.01 15.1 59.1 78 11.3 52.3
22:35 1018 30.06 847 25.01 15.1 59.2 81 11.9 53.4
22:40 1018 30.06 848 25.04 15 59.1 74 10.5 50.8
22:45 1018 30.06 848 25.04 15.2 59.4 77 11.1 52.1
22:50 1018 30.06 847 25.01 15.1 59.2 73 10.4 50.7
22:55 1018 30.06 847 25.01 15.3 59.5 72 10.2 50.4
23:00 1018 30.06 848 25.04 15.4 59.7 71 10.3 50.5
23:05 1018 30.06 848 25.04 15.4 59.8 71 10.2 50.3
23:10 1018 30.06 848 25.04 15.5 59.9 70 10.2 50.3
23:15 1018 30.06 847 25.01 15.5 60 69 9.8 49.7
23:20 1018 30.06 847 25.01 15.7 60.2 68 9.9 49.9
23:25 1018 30.06 847 25.01 15.7 60.2 68 9.8 49.7
23:30 1018 30.06 847 25.01 15.6 60.1 68 9.9 49.8
23:35 1018 30.06 847 25.01 15.6 60 70 10.1 50.2
23:40 1018 30.06 847 25.01 15.4 59.7 71 10.3 50.5
23:45 1018 30.06 847 25.01 15 59 77 11 51.9
23:50 1018 30.06 847 25.01 14.3 57.8 80 11 51.9
23:55 1018 30.06 847 25.01 14 57.1 81 10.7 51.3
24:00 1017 30.03 846 24.98 13.8 56.8 83 11 51.7